KDVT/DVT METAR and TAF weather

Enter ICAO airport designator
Station Type Date Time Source
KDVT METAR 2021/07/29 01:53 UTC NOAA

KDVT 290153Z 25008KT 10SM CLR 38/14 A2986 RMK AO2 SLP082 T03830139


Station Type Date Time Source
KDVT Decoded METAR 2021/07/29 01:53 UTC NOAA

PHOENIX-DEER VALLEY MUN, AZ, United States (KDVT) 33-41N 112-04W 443M
Jul 28, 2021 - 09:53 PM EDT / 2021.07.29 0153 UTC
Wind: from the WSW (250 degrees) at 9 MPH (8 KT):0
Visibility: 10 mile(s):0
Sky conditions: clear
Temperature: 100.9 F (38.3 C)
Heat index: 100.0 F (37.8 C):1
Dew Point: 57.0 F (13.9 C)
Relative Humidity: 23%
Pressure (altimeter): 29.86 in. Hg (1011 hPa)
ob: KDVT 290153Z 25008KT 10SM CLR 38/14 A2986 RMK AO2 SLP082 T03830139
cycle: 2

Station Type Date Time Source
KDVT TAF 2021/07/28 18:48 UTC NOAA

TAF KDVT 281746Z 2818/2918 VRB04KT P6SM FEW150 FEW250
FM281900 24008KT P6SM FEW150 SCT250
FM290400 08007KT P6SM FEW150 SCT250

Example: see airport list